DLH6YY EDDL-EDDF
Flight info
| Callsign | DLH6YY |
|---|---|
| Flight time | 0h 48m |
| Altitude | 23000 |
| Route | COL6T COL T911 ROLIS ROLIS5D |
| Aircraft | A319/M-SDE2E3FGIJ1LORWXYZ/HB1 |
Departure
| Time | 2026-05-01 11:45 |
|---|---|
| Airport | Düsseldorf Airport (EDDL) |
Arrival
| Time | 2026-05-01 12:33 |
|---|---|
| Airport | Frankfurt Main Airport (EDDF) |
| Time | Latitude | Longitude | Altitude | Speed | Heading |
|---|---|---|---|---|---|
| 2026-05-01 11:14 | 51.28068 | 6.76536 | 131 ft | 0 kts | 97° |
| 2026-05-01 11:36 | 51.28068 | 6.76533 | 131 ft | 2 kts | 97° |
| 2026-05-01 11:36 | 51.28071 | 6.76492 | 130 ft | 4 kts | 99° |
| 2026-05-01 11:37 | 51.28079 | 6.76452 | 127 ft | 4 kts | 127° |
| 2026-05-01 11:37 | 51.28093 | 6.76426 | 125 ft | 4 kts | 133° |
| 2026-05-01 11:37 | 51.28110 | 6.76397 | 125 ft | 2 kts | 134° |
| 2026-05-01 11:37 | 51.28125 | 6.76370 | 130 ft | 4 kts | 122° |
| 2026-05-01 11:38 | 51.28138 | 6.76332 | 128 ft | 4 kts | 116° |
| 2026-05-01 11:38 | 51.28148 | 6.76297 | 126 ft | 4 kts | 99° |
| 2026-05-01 11:38 | 51.28147 | 6.76255 | 127 ft | 4 kts | 69° |
| 2026-05-01 11:38 | 51.28134 | 6.76218 | 127 ft | 4 kts | 52° |
| 2026-05-01 11:39 | 51.28120 | 6.76190 | 125 ft | 0 kts | 52° |
| 2026-05-01 11:40 | 51.28120 | 6.76191 | 130 ft | 0 kts | 52° |
| 2026-05-01 11:41 | 51.28126 | 6.76204 | 127 ft | 3 kts | 52° |
| 2026-05-01 11:41 | 51.28154 | 6.76251 | 129 ft | 9 kts | 32° |
| 2026-05-01 11:41 | 51.28227 | 6.76242 | 129 ft | 13 kts | 29° |
| 2026-05-01 11:41 | 51.28298 | 6.76373 | 125 ft | 18 kts | 53° |
| 2026-05-01 11:42 | 51.28376 | 6.76537 | 123 ft | 19 kts | 52° |
| 2026-05-01 11:42 | 51.28459 | 6.76713 | 123 ft | 20 kts | 52° |
| 2026-05-01 11:42 | 51.28543 | 6.76889 | 125 ft | 20 kts | 52° |
| 2026-05-01 11:42 | 51.28626 | 6.77063 | 130 ft | 20 kts | 52° |
| 2026-05-01 11:43 | 51.28712 | 6.77242 | 130 ft | 21 kts | 53° |
| 2026-05-01 11:43 | 51.28802 | 6.77432 | 130 ft | 22 kts | 53° |
| 2026-05-01 11:43 | 51.28897 | 6.77632 | 128 ft | 23 kts | 53° |
| 2026-05-01 11:44 | 51.29096 | 6.78049 | 132 ft | 24 kts | 53° |
| 2026-05-01 11:44 | 51.29182 | 6.78204 | 137 ft | 15 kts | 26° |
| 2026-05-01 11:44 | 51.29277 | 6.78166 | 140 ft | 13 kts | 325° |
| 2026-05-01 11:44 | 51.29322 | 6.78067 | 143 ft | 11 kts | 265° |
| 2026-05-01 11:45 | 51.29270 | 6.77948 | 140 ft | 21 kts | 233° |
| 2026-05-01 11:45 | 51.28993 | 6.77366 | 127 ft | 108 kts | 233° |
| 2026-05-01 11:45 | 51.28407 | 6.76177 | 352 ft | 150 kts | 226° |
| 2026-05-01 11:45 | 51.27791 | 6.74858 | 1178 ft | 147 kts | 226° |
| 2026-05-01 11:46 | 51.27186 | 6.73556 | 1879 ft | 153 kts | 227° |
| 2026-05-01 11:46 | 51.26500 | 6.72098 | 2352 ft | 176 kts | 226° |
| 2026-05-01 11:46 | 51.25711 | 6.70422 | 2857 ft | 202 kts | 227° |
| 2026-05-01 11:46 | 51.24823 | 6.68528 | 3450 ft | 225 kts | 227° |
| 2026-05-01 11:47 | 51.23836 | 6.66422 | 4137 ft | 248 kts | 229° |
| 2026-05-01 11:47 | 51.22643 | 6.64401 | 5064 ft | 253 kts | 209° |
| 2026-05-01 11:47 | 51.20975 | 6.63571 | 6074 ft | 256 kts | 179° |
| 2026-05-01 11:47 | 51.19241 | 6.64159 | 7154 ft | 257 kts | 155° |
| 2026-05-01 11:48 | 51.17797 | 6.65856 | 8198 ft | 264 kts | 131° |
| 2026-05-01 11:48 | 51.16851 | 6.68394 | 9225 ft | 269 kts | 120° |
| 2026-05-01 11:48 | 51.15901 | 6.70935 | 10262 ft | 272 kts | 124° |
| 2026-05-01 11:48 | 51.14811 | 6.73501 | 10907 ft | 290 kts | 126° |
| 2026-05-01 11:49 | 51.13603 | 6.76240 | 11360 ft | 312 kts | 126° |
| 2026-05-01 11:49 | 51.12336 | 6.79119 | 12123 ft | 321 kts | 125° |
| 2026-05-01 11:49 | 51.11062 | 6.82066 | 12977 ft | 327 kts | 124° |
| 2026-05-01 11:49 | 51.09778 | 6.85089 | 13870 ft | 331 kts | 124° |
| 2026-05-01 11:50 | 51.08489 | 6.88157 | 14712 ft | 335 kts | 124° |
| 2026-05-01 11:50 | 51.07193 | 6.91258 | 15497 ft | 338 kts | 124° |
| 2026-05-01 11:50 | 51.05891 | 6.94380 | 16280 ft | 342 kts | 124° |
| 2026-05-01 11:50 | 51.04569 | 6.97551 | 16978 ft | 347 kts | 124° |
| 2026-05-01 11:51 | 51.03225 | 7.00765 | 17256 ft | 350 kts | 124° |
| 2026-05-01 11:51 | 51.01869 | 7.03999 | 17325 ft | 355 kts | 124° |
| 2026-05-01 11:51 | 51.00504 | 7.07253 | 17328 ft | 353 kts | 124° |
| 2026-05-01 11:51 | 50.99139 | 7.10496 | 17328 ft | 352 kts | 124° |
| 2026-05-01 11:52 | 50.97780 | 7.13723 | 17328 ft | 351 kts | 124° |
| 2026-05-01 11:52 | 50.96420 | 7.16955 | 17329 ft | 354 kts | 124° |
| 2026-05-01 11:52 | 50.95056 | 7.20183 | 17328 ft | 355 kts | 124° |
| 2026-05-01 11:52 | 50.93680 | 7.23426 | 17327 ft | 354 kts | 124° |
| 2026-05-01 11:53 | 50.92306 | 7.26663 | 17327 ft | 353 kts | 124° |
| 2026-05-01 11:53 | 50.90954 | 7.29854 | 17329 ft | 353 kts | 124° |
| 2026-05-01 11:53 | 50.89490 | 7.32955 | 17325 ft | 351 kts | 134° |
| 2026-05-01 11:53 | 50.87574 | 7.35342 | 17324 ft | 352 kts | 145° |
| 2026-05-01 11:54 | 50.85551 | 7.37536 | 17320 ft | 353 kts | 145° |
| 2026-05-01 11:54 | 50.83519 | 7.39726 | 17315 ft | 354 kts | 145° |
| 2026-05-01 11:54 | 50.81486 | 7.41917 | 17319 ft | 353 kts | 145° |
| 2026-05-01 11:54 | 50.79457 | 7.44106 | 17332 ft | 353 kts | 145° |
| 2026-05-01 11:55 | 50.77432 | 7.46290 | 17328 ft | 353 kts | 144° |
| 2026-05-01 11:55 | 50.75403 | 7.48481 | 17335 ft | 353 kts | 145° |
| 2026-05-01 11:55 | 50.73371 | 7.50668 | 17335 ft | 354 kts | 144° |
| 2026-05-01 11:55 | 50.71333 | 7.52858 | 17327 ft | 355 kts | 144° |
| 2026-05-01 11:56 | 50.69291 | 7.55049 | 17328 ft | 356 kts | 144° |
| 2026-05-01 11:56 | 50.67239 | 7.57241 | 17330 ft | 356 kts | 144° |
| 2026-05-01 11:56 | 50.65188 | 7.59432 | 17335 ft | 356 kts | 144° |
| 2026-05-01 11:56 | 50.63135 | 7.61627 | 17349 ft | 356 kts | 144° |
| 2026-05-01 11:57 | 50.61092 | 7.63814 | 17270 ft | 353 kts | 144° |
| 2026-05-01 11:57 | 50.59763 | 7.65239 | 17104 ft | 345 kts | 144° |
| 2026-05-01 11:57 | 50.57154 | 7.68027 | 16605 ft | 337 kts | 144° |
| 2026-05-01 11:57 | 50.55225 | 7.70082 | 16152 ft | 334 kts | 145° |
| 2026-05-01 11:58 | 50.53308 | 7.72115 | 15704 ft | 331 kts | 144° |
| 2026-05-01 11:58 | 50.51405 | 7.74137 | 15258 ft | 329 kts | 144° |
| 2026-05-01 11:58 | 50.47643 | 7.78124 | 14365 ft | 324 kts | 144° |
| 2026-05-01 11:59 | 50.45825 | 7.80183 | 14059 ft | 317 kts | 136° |
| 2026-05-01 11:59 | 50.44465 | 7.82780 | 13985 ft | 302 kts | 123° |
| 2026-05-01 11:59 | 50.43307 | 7.85500 | 13913 ft | 300 kts | 123° |
| 2026-05-01 12:00 | 50.41007 | 7.90958 | 13756 ft | 303 kts | 123° |
| 2026-05-01 12:00 | 50.39849 | 7.93704 | 13689 ft | 300 kts | 123° |
| 2026-05-01 12:00 | 50.37548 | 7.99157 | 13555 ft | 298 kts | 123° |
| 2026-05-01 12:01 | 50.36405 | 8.01870 | 13451 ft | 300 kts | 123° |
| 2026-05-01 12:01 | 50.35229 | 8.04662 | 13191 ft | 314 kts | 123° |
| 2026-05-01 12:01 | 50.34005 | 8.07556 | 12931 ft | 322 kts | 123° |
| 2026-05-01 12:01 | 50.32769 | 8.10475 | 12674 ft | 321 kts | 123° |
| 2026-05-01 12:02 | 50.31537 | 8.13379 | 12423 ft | 320 kts | 123° |
| 2026-05-01 12:02 | 50.30329 | 8.16229 | 12175 ft | 317 kts | 123° |
| 2026-05-01 12:02 | 50.29117 | 8.19088 | 11923 ft | 316 kts | 124° |
| 2026-05-01 12:02 | 50.27898 | 8.21950 | 11672 ft | 315 kts | 124° |
| 2026-05-01 12:03 | 50.26685 | 8.24800 | 11427 ft | 316 kts | 124° |
| 2026-05-01 12:03 | 50.25466 | 8.27656 | 11184 ft | 315 kts | 124° |
| 2026-05-01 12:03 | 50.24257 | 8.30483 | 10941 ft | 309 kts | 124° |
| 2026-05-01 12:03 | 50.23084 | 8.33230 | 10701 ft | 300 kts | 124° |
| 2026-05-01 12:04 | 50.21928 | 8.35877 | 10459 ft | 291 kts | 128° |
| 2026-05-01 12:04 | 50.20549 | 8.38119 | 10218 ft | 283 kts | 140° |
| 2026-05-01 12:04 | 50.18928 | 8.39783 | 9952 ft | 277 kts | 152° |
| 2026-05-01 12:04 | 50.17152 | 8.40893 | 9691 ft | 274 kts | 159° |
| 2026-05-01 12:05 | 50.15369 | 8.41898 | 9434 ft | 271 kts | 159° |
| 2026-05-01 12:05 | 50.11699 | 8.41758 | 8909 ft | 277 kts | 206° |
| 2026-05-01 12:05 | 50.10275 | 8.39726 | 8659 ft | 284 kts | 234° |
| 2026-05-01 12:06 | 50.09487 | 8.36930 | 8403 ft | 280 kts | 247° |
| 2026-05-01 12:06 | 50.08824 | 8.34127 | 8153 ft | 272 kts | 247° |
| 2026-05-01 12:06 | 50.08173 | 8.31394 | 7903 ft | 265 kts | 246° |
| 2026-05-01 12:06 | 50.07539 | 8.28745 | 7657 ft | 260 kts | 246° |
| 2026-05-01 12:07 | 50.06910 | 8.26142 | 7413 ft | 255 kts | 246° |
| 2026-05-01 12:07 | 50.06290 | 8.23584 | 7171 ft | 250 kts | 245° |
| 2026-05-01 12:07 | 50.05679 | 8.21069 | 6934 ft | 247 kts | 245° |
| 2026-05-01 12:07 | 50.05070 | 8.18579 | 6685 ft | 245 kts | 245° |
| 2026-05-01 12:08 | 50.04463 | 8.16108 | 6439 ft | 245 kts | 245° |
| 2026-05-01 12:08 | 50.04062 | 8.14475 | 6257 ft | 243 kts | 245° |
| 2026-05-01 12:08 | 50.03466 | 8.12037 | 6055 ft | 241 kts | 245° |
| 2026-05-01 12:08 | 50.02866 | 8.09600 | 5935 ft | 243 kts | 245° |
| 2026-05-01 12:09 | 50.02263 | 8.07148 | 5802 ft | 242 kts | 244° |
| 2026-05-01 12:09 | 50.01664 | 8.04704 | 5677 ft | 240 kts | 244° |
| 2026-05-01 12:09 | 50.01066 | 8.02262 | 5605 ft | 242 kts | 245° |
| 2026-05-01 12:09 | 50.00463 | 7.99812 | 5531 ft | 241 kts | 245° |
| 2026-05-01 12:10 | 49.99865 | 7.97381 | 5448 ft | 241 kts | 245° |
| 2026-05-01 12:10 | 49.98674 | 7.92530 | 5299 ft | 240 kts | 245° |
| 2026-05-01 12:10 | 49.98084 | 7.90111 | 5226 ft | 239 kts | 244° |
| 2026-05-01 12:11 | 49.96276 | 7.86112 | 5013 ft | 224 kts | 200° |
| 2026-05-01 12:11 | 49.94778 | 7.85795 | 4986 ft | 217 kts | 169° |
| 2026-05-01 12:11 | 49.93324 | 7.86370 | 4983 ft | 216 kts | 160° |
| 2026-05-01 12:12 | 49.92057 | 7.87574 | 4988 ft | 217 kts | 131° |
| 2026-05-01 12:12 | 49.91412 | 7.89680 | 4988 ft | 220 kts | 107° |
| 2026-05-01 12:12 | 49.91086 | 7.92010 | 4984 ft | 221 kts | 104° |
| 2026-05-01 12:12 | 49.90790 | 7.94366 | 4994 ft | 223 kts | 104° |
| 2026-05-01 12:13 | 49.90701 | 7.96764 | 4988 ft | 228 kts | 79° |
| 2026-05-01 12:13 | 49.91341 | 7.99056 | 4992 ft | 234 kts | 69° |
| 2026-05-01 12:13 | 49.91979 | 8.01365 | 4983 ft | 233 kts | 72° |
| 2026-05-01 12:13 | 49.92559 | 8.03706 | 4990 ft | 232 kts | 73° |
| 2026-05-01 12:14 | 49.93125 | 8.06030 | 4997 ft | 233 kts | 73° |
| 2026-05-01 12:14 | 49.93700 | 8.08384 | 4988 ft | 225 kts | 73° |
| 2026-05-01 12:14 | 49.94231 | 8.10550 | 4990 ft | 211 kts | 73° |
| 2026-05-01 12:14 | 49.94737 | 8.12621 | 4986 ft | 199 kts | 74° |
| 2026-05-01 12:15 | 49.95212 | 8.14571 | 5012 ft | 190 kts | 75° |
| 2026-05-01 12:15 | 49.95685 | 8.16522 | 4948 ft | 190 kts | 75° |
| 2026-05-01 12:15 | 49.96145 | 8.18413 | 4758 ft | 189 kts | 74° |
| 2026-05-01 12:15 | 49.96612 | 8.20332 | 4509 ft | 187 kts | 75° |
| 2026-05-01 12:16 | 49.97064 | 8.22192 | 4244 ft | 187 kts | 74° |
| 2026-05-01 12:16 | 49.97521 | 8.24076 | 3966 ft | 185 kts | 72° |
| 2026-05-01 12:16 | 49.97969 | 8.25919 | 3727 ft | 181 kts | 72° |
| 2026-05-01 12:16 | 49.98412 | 8.27749 | 3460 ft | 180 kts | 72° |
| 2026-05-01 12:17 | 49.98851 | 8.29563 | 3209 ft | 179 kts | 71° |
| 2026-05-01 12:17 | 49.99288 | 8.31369 | 2959 ft | 179 kts | 72° |
| 2026-05-01 12:17 | 49.99725 | 8.33179 | 2684 ft | 178 kts | 72° |
| 2026-05-01 12:17 | 50.00158 | 8.34967 | 2438 ft | 177 kts | 71° |
| 2026-05-01 12:18 | 50.00587 | 8.36749 | 2177 ft | 176 kts | 73° |
| 2026-05-01 12:18 | 50.01009 | 8.38494 | 1942 ft | 171 kts | 73° |
| 2026-05-01 12:18 | 50.01414 | 8.40168 | 1710 ft | 158 kts | 71° |
| 2026-05-01 12:18 | 50.01782 | 8.41695 | 1478 ft | 143 kts | 71° |
| 2026-05-01 12:19 | 50.02050 | 8.42816 | 1324 ft | 126 kts | 74° |
| 2026-05-01 12:19 | 50.02356 | 8.44088 | 1172 ft | 123 kts | 73° |
| 2026-05-01 12:19 | 50.02645 | 8.45296 | 1006 ft | 116 kts | 73° |
| 2026-05-01 12:19 | 50.02933 | 8.46510 | 810 ft | 121 kts | 72° |
| 2026-05-01 12:20 | 50.03230 | 8.47731 | 669 ft | 119 kts | 73° |
| 2026-05-01 12:20 | 50.03522 | 8.48944 | 486 ft | 119 kts | 72° |
| 2026-05-01 12:20 | 50.03812 | 8.50140 | 330 ft | 112 kts | 72° |
| 2026-05-01 12:20 | 50.04048 | 8.51159 | 336 ft | 100 kts | 70° |
| 2026-05-01 12:21 | 50.04328 | 8.52314 | 841 ft | 119 kts | 71° |
| 2026-05-01 12:21 | 50.04655 | 8.53510 | 1655 ft | 124 kts | 68° |
| 2026-05-01 12:21 | 50.05318 | 8.54539 | 2089 ft | 154 kts | 29° |
| 2026-05-01 12:21 | 50.06480 | 8.54547 | 2368 ft | 186 kts | 345° |
| 2026-05-01 12:22 | 50.07709 | 8.53651 | 2773 ft | 207 kts | 334° |
| 2026-05-01 12:22 | 50.09064 | 8.52541 | 3299 ft | 235 kts | 334° |
| 2026-05-01 12:22 | 50.10588 | 8.51285 | 3973 ft | 260 kts | 333° |
| 2026-05-01 12:22 | 50.12263 | 8.49921 | 4699 ft | 282 kts | 330° |
| 2026-05-01 12:23 | 50.13741 | 8.47901 | 4937 ft | 286 kts | 304° |
| 2026-05-01 12:23 | 50.14494 | 8.45089 | 4999 ft | 280 kts | 275° |
| 2026-05-01 12:23 | 50.14395 | 8.42151 | 4994 ft | 263 kts | 254° |
| 2026-05-01 12:23 | 50.13970 | 8.39409 | 5001 ft | 264 kts | 246° |
| 2026-05-01 12:24 | 50.13259 | 8.36751 | 5003 ft | 268 kts | 239° |
| 2026-05-01 12:24 | 50.12320 | 8.34259 | 4989 ft | 265 kts | 231° |
| 2026-05-01 12:24 | 50.11192 | 8.32061 | 5000 ft | 264 kts | 223° |
| 2026-05-01 12:24 | 50.09918 | 8.30001 | 4991 ft | 264 kts | 222° |
| 2026-05-01 12:25 | 50.08671 | 8.27900 | 4998 ft | 264 kts | 224° |
| 2026-05-01 12:25 | 50.06281 | 8.23556 | 4996 ft | 268 kts | 237° |
| 2026-05-01 12:25 | 50.05536 | 8.20889 | 5002 ft | 271 kts | 246° |
| 2026-05-01 12:26 | 50.04924 | 8.18101 | 4885 ft | 271 kts | 247° |
| 2026-05-01 12:26 | 50.02671 | 8.14211 | 4380 ft | 227 kts | 193° |
| 2026-05-01 12:26 | 50.01160 | 8.14005 | 4136 ft | 214 kts | 175° |
| 2026-05-01 12:27 | 49.99700 | 8.14109 | 3990 ft | 205 kts | 173° |
| 2026-05-01 12:27 | 49.97166 | 8.14896 | 3981 ft | 176 kts | 136° |
| 2026-05-01 12:28 | 49.96407 | 8.18426 | 3990 ft | 179 kts | 92° |
| 2026-05-01 12:28 | 49.96615 | 8.20339 | 3982 ft | 183 kts | 76° |
| 2026-05-01 12:28 | 49.97510 | 8.24029 | 3894 ft | 181 kts | 73° |
| 2026-05-01 12:29 | 49.97954 | 8.25858 | 3712 ft | 181 kts | 72° |
| 2026-05-01 12:29 | 49.98396 | 8.27681 | 3461 ft | 180 kts | 72° |
| 2026-05-01 12:29 | 49.99270 | 8.31296 | 2961 ft | 178 kts | 72° |
| 2026-05-01 12:30 | 50.00127 | 8.34840 | 2460 ft | 171 kts | 71° |
| 2026-05-01 12:30 | 50.00541 | 8.36552 | 2215 ft | 166 kts | 73° |
| 2026-05-01 12:30 | 50.00927 | 8.38147 | 1983 ft | 146 kts | 72° |
| 2026-05-01 12:31 | 50.01263 | 8.39538 | 1770 ft | 130 kts | 72° |
| 2026-05-01 12:31 | 50.01569 | 8.40813 | 1614 ft | 125 kts | 72° |
| 2026-05-01 12:31 | 50.01865 | 8.42046 | 1429 ft | 120 kts | 74° |
| 2026-05-01 12:31 | 50.02157 | 8.43264 | 1282 ft | 120 kts | 75° |
| 2026-05-01 12:32 | 50.02454 | 8.44503 | 1132 ft | 125 kts | 73° |
| 2026-05-01 12:32 | 50.03065 | 8.47063 | 747 ft | 124 kts | 74° |
| 2026-05-01 12:32 | 50.03368 | 8.48306 | 572 ft | 123 kts | 70° |
| 2026-05-01 12:33 | 50.03665 | 8.49525 | 392 ft | 118 kts | 72° |
| 2026-05-01 12:33 | 50.03936 | 8.50654 | 329 ft | 100 kts | 70° |
| 2026-05-01 12:33 | 50.04129 | 8.51480 | 336 ft | 57 kts | 70° |
| 2026-05-01 12:33 | 50.04230 | 8.51917 | 340 ft | 31 kts | 78° |
| 2026-05-01 12:34 | 50.04232 | 8.52197 | 350 ft | 21 kts | 99° |
| 2026-05-01 12:34 | 50.04212 | 8.52375 | 347 ft | 16 kts | 99° |
| 2026-05-01 12:34 | 50.04194 | 8.52544 | 355 ft | 16 kts | 99° |
| 2026-05-01 12:34 | 50.04211 | 8.52721 | 351 ft | 17 kts | 70° |
| 2026-05-01 12:35 | 50.04252 | 8.52892 | 356 ft | 16 kts | 69° |
| 2026-05-01 12:35 | 50.04290 | 8.53052 | 363 ft | 15 kts | 70° |
| 2026-05-01 12:35 | 50.04326 | 8.53199 | 361 ft | 14 kts | 70° |
| 2026-05-01 12:35 | 50.04360 | 8.53340 | 366 ft | 14 kts | 69° |
| 2026-05-01 12:36 | 50.04394 | 8.53491 | 365 ft | 15 kts | 81° |
| 2026-05-01 12:36 | 50.04405 | 8.53672 | 365 ft | 18 kts | 84° |
| 2026-05-01 12:36 | 50.04419 | 8.53871 | 365 ft | 19 kts | 84° |
| 2026-05-01 12:36 | 50.04433 | 8.54084 | 365 ft | 20 kts | 84° |
| 2026-05-01 12:37 | 50.04448 | 8.54306 | 367 ft | 21 kts | 84° |
| 2026-05-01 12:37 | 50.04444 | 8.54536 | 365 ft | 22 kts | 106° |
| 2026-05-01 12:37 | 50.04360 | 8.54730 | 365 ft | 22 kts | 138° |
| 2026-05-01 12:37 | 50.04234 | 8.54815 | 367 ft | 18 kts | 160° |
| 2026-05-01 12:38 | 50.04125 | 8.54877 | 370 ft | 15 kts | 159° |
| 2026-05-01 12:38 | 50.04035 | 8.54929 | 369 ft | 12 kts | 159° |
| 2026-05-01 12:38 | 50.04020 | 8.55022 | 366 ft | 9 kts | 72° |
| 2026-05-01 12:38 | 50.04039 | 8.55102 | 371 ft | 7 kts | 70° |
| 2026-05-01 12:39 | 50.04056 | 8.55177 | 370 ft | 7 kts | 70° |
| 2026-05-01 12:39 | 50.04076 | 8.55260 | 367 ft | 10 kts | 69° |
| 2026-05-01 12:39 | 50.04109 | 8.55397 | 366 ft | 17 kts | 69° |
| 2026-05-01 12:39 | 50.04156 | 8.55594 | 370 ft | 20 kts | 70° |
| 2026-05-01 12:40 | 50.04205 | 8.55799 | 367 ft | 20 kts | 69° |
| 2026-05-01 12:40 | 50.04254 | 8.56002 | 367 ft | 19 kts | 70° |
| 2026-05-01 12:40 | 50.04310 | 8.56074 | 366 ft | 10 kts | 345° |
| 2026-05-01 12:40 | 50.04374 | 8.56037 | 366 ft | 9 kts | 340° |
| 2026-05-01 12:41 | 50.04429 | 8.56037 | 366 ft | 8 kts | 37° |
| 2026-05-01 12:41 | 50.04450 | 8.56107 | 368 ft | 7 kts | 70° |
| 2026-05-01 12:41 | 50.04465 | 8.56173 | 368 ft | 7 kts | 69° |
| 2026-05-01 12:41 | 50.04482 | 8.56244 | 366 ft | 7 kts | 70° |
| 2026-05-01 12:42 | 50.04485 | 8.56314 | 366 ft | 6 kts | 142° |
| 2026-05-01 12:42 | 50.04446 | 8.56327 | 368 ft | 5 kts | 169° |
| 2026-05-01 12:42 | 50.04431 | 8.56331 | 366 ft | 0 kts | 170° |
| 2026-05-01 12:42 | 50.04430 | 8.56331 | 366 ft | 0 kts | 170° |